createdAt,value
2017-07-12T00:01:32.354Z,73.68
2017-07-12T00:03:58.705Z,74.79
2017-07-12T00:06:25.090Z,73.21
2017-07-12T00:08:51.427Z,77.81
2017-07-12T00:11:17.769Z,72.10
2017-07-12T00:13:44.113Z,72.72
2017-07-12T00:16:10.460Z,75.71
2017-07-12T00:18:36.791Z,78.45
2017-07-12T00:21:03.127Z,76.98
2017-07-12T00:23:29.873Z,74.74
2017-07-12T00:25:56.211Z,73.93
2017-07-12T00:28:22.589Z,73.99
2017-07-12T00:30:48.951Z,70.82
2017-07-12T00:33:15.813Z,70.43
2017-07-12T00:35:42.193Z,70.25
2017-07-12T00:38:08.561Z,70.21
2017-07-12T00:40:34.897Z,70.84
2017-07-12T00:43:01.262Z,75.40
2017-07-12T00:45:27.603Z,75.21
2017-07-12T00:47:53.969Z,79.17
2017-07-12T00:50:20.337Z,76.76
2017-07-12T00:52:46.696Z,72.02
2017-07-12T00:55:13.033Z,71.00
2017-07-12T00:57:39.388Z,70.59
2017-07-12T01:00:05.821Z,71.13
2017-07-12T01:02:32.159Z,71.90
2017-07-12T01:04:58.511Z,78.26
2017-07-12T01:07:24.884Z,78.61
2017-07-12T01:09:51.247Z,78.29
2017-07-12T01:12:17.572Z,74.97
2017-07-12T01:14:43.917Z,73.54
2017-07-12T01:17:10.281Z,77.54
2017-07-12T01:19:36.669Z,77.17
2017-07-12T01:22:03.015Z,78.98
2017-07-12T01:24:29.371Z,73.90
2017-07-12T01:26:55.710Z,73.45
2017-07-12T01:29:22.063Z,71.25
2017-07-12T01:31:48.437Z,71.75
2017-07-12T01:34:14.846Z,72.25
2017-07-12T01:36:41.207Z,70.93
2017-07-12T01:39:07.569Z,71.22
2017-07-12T01:41:33.936Z,75.66
2017-07-12T01:44:00.375Z,76.59
2017-07-12T01:46:26.763Z,79.14
2017-07-12T01:48:53.238Z,81.54
2017-07-12T01:51:19.705Z,74.82
2017-07-12T01:53:49.276Z,72.18
2017-07-12T01:56:18.873Z,75.38
2017-07-12T01:58:50.748Z,77.89
2017-07-12T02:01:17.468Z,80.43
2017-07-12T02:03:49.950Z,80.66
2017-07-12T02:06:16.478Z,81.23
2017-07-12T02:08:48.333Z,74.56
2017-07-12T02:11:19.965Z,74.01
2017-07-12T02:13:51.918Z,73.30
2017-07-12T02:16:23.784Z,76.57
2017-07-12T02:18:50.637Z,78.91
2017-07-12T02:21:22.943Z,80.23
2017-07-12T02:23:49.372Z,77.94
2017-07-12T02:26:15.850Z,77.51
2017-07-12T02:28:42.346Z,78.71
2017-07-12T02:31:14.245Z,79.29
2017-07-12T02:33:41.032Z,77.62
2017-07-12T02:36:07.440Z,80.78
2017-07-12T02:38:37.008Z,82.17
2017-07-12T02:41:03.431Z,76.98
2017-07-12T02:43:35.270Z,75.25
2017-07-12T02:46:07.751Z,74.28
2017-07-12T02:48:34.263Z,72.78
2017-07-12T02:51:00.767Z,76.77
2017-07-12T02:53:32.543Z,77.92
2017-07-12T02:55:58.939Z,75.61
2017-07-12T02:58:28.490Z,82.96
2017-07-12T03:01:00.096Z,75.97
2017-07-12T03:03:31.649Z,80.74
2017-07-12T03:05:58.182Z,77.71
2017-07-12T03:08:29.662Z,84.12
2017-07-12T03:10:56.101Z,83.74
2017-07-12T03:13:22.527Z,83.73
2017-07-12T03:15:49.201Z,82.78
2017-07-12T03:18:15.703Z,83.92
2017-07-12T03:20:42.137Z,81.60
2017-07-12T03:23:08.657Z,84.01
2017-07-12T03:25:40.697Z,77.95
2017-07-12T03:28:07.117Z,82.67
2017-07-12T03:30:33.633Z,84.50
2017-07-12T03:33:00.467Z,84.42
2017-07-12T03:35:26.902Z,77.70
2017-07-12T03:37:53.610Z,80.87
2017-07-12T03:40:20.065Z,82.33
2017-07-12T03:42:49.438Z,83.28
2017-07-12T03:45:15.795Z,78.15
2017-07-12T03:47:42.219Z,78.19
2017-07-12T03:50:09.213Z,80.22
2017-07-12T03:52:36.597Z,77.91
2017-07-12T03:55:03.024Z,77.15
2017-07-12T03:57:29.403Z,77.13
2017-07-12T03:59:55.825Z,78.13
2017-07-12T04:02:25.557Z,76.89
2017-07-12T04:04:52.110Z,75.46
2017-07-12T04:07:18.876Z,77.38
2017-07-12T04:09:50.481Z,78.74
2017-07-12T04:12:16.937Z,79.32
2017-07-12T04:14:43.759Z,75.73
2017-07-12T04:17:15.418Z,75.33
2017-07-12T04:19:42.423Z,76.18
2017-07-12T04:22:09.268Z,77.80
2017-07-12T04:24:35.722Z,80.57
2017-07-12T04:27:02.094Z,78.59
2017-07-12T04:29:28.459Z,77.89
2017-07-12T04:31:55.043Z,76.03
2017-07-12T04:34:26.712Z,80.63
2017-07-12T04:36:53.076Z,79.01
2017-07-12T04:39:23.014Z,78.89
2017-07-12T04:41:49.548Z,81.07
2017-07-12T04:44:15.974Z,81.17
2017-07-12T04:46:42.687Z,83.56
2017-07-12T04:49:14.306Z,84.58
2017-07-12T04:51:40.740Z,85.15
2017-07-12T04:54:08.165Z,82.95
2017-07-12T04:56:34.632Z,80.31
2017-07-12T04:59:01.141Z,84.20
2017-07-12T05:01:28.476Z,86.51
2017-07-12T05:03:54.916Z,86.82
2017-07-12T05:06:21.361Z,87.69
2017-07-12T05:08:53.902Z,84.41
2017-07-12T05:11:20.395Z,84.11
2017-07-12T05:13:46.766Z,86.98
2017-07-12T05:16:13.222Z,80.50
2017-07-12T05:18:39.589Z,83.45
2017-07-12T05:21:06.056Z,80.89
2017-07-12T05:23:32.859Z,80.89
2017-07-12T05:25:59.640Z,80.24
2017-07-12T05:28:31.264Z,82.51
2017-07-12T05:31:02.847Z,83.92
2017-07-12T05:33:29.264Z,84.82
2017-07-12T05:36:00.939Z,78.61
2017-07-12T05:38:33.130Z,82.75
2017-07-12T05:40:59.701Z,78.48
2017-07-12T05:43:26.255Z,80.92
2017-07-12T05:45:53.473Z,81.70
2017-07-12T05:48:25.538Z,86.79
2017-07-12T05:50:52.195Z,83.32
2017-07-12T05:53:18.594Z,83.21
2017-07-12T05:55:50.358Z,85.12
2017-07-12T05:58:16.896Z,81.00
2017-07-12T06:00:43.661Z,81.69
2017-07-12T06:03:10.411Z,79.97
2017-07-12T06:05:36.800Z,81.81
2017-07-12T06:08:03.262Z,82.23
2017-07-12T06:10:30.690Z,80.85
2017-07-12T06:12:57.858Z,81.50
2017-07-12T06:15:24.521Z,80.96
2017-07-12T06:17:53.965Z,80.08
2017-07-12T06:20:25.903Z,80.15
2017-07-12T06:22:52.379Z,77.35
2017-07-12T06:25:19.721Z,79.73
2017-07-12T06:27:46.158Z,81.05
2017-07-12T06:30:15.548Z,80.94
2017-07-12T06:32:43.056Z,79.25
2017-07-12T06:35:09.667Z,80.38
2017-07-12T06:37:36.127Z,78.57
2017-07-12T06:40:02.671Z,78.49
2017-07-12T06:42:30.008Z,78.59
2017-07-12T06:44:57.381Z,80.86
2017-07-12T06:47:28.988Z,80.18
2017-07-12T06:49:55.629Z,81.63
2017-07-12T06:52:27.672Z,77.96
2017-07-12T06:54:54.010Z,80.28
2017-07-12T06:57:20.855Z,78.21
2017-07-12T06:59:52.541Z,82.09
2017-07-12T07:02:19.030Z,81.73
2017-07-12T07:04:45.434Z,77.67
2017-07-12T07:07:17.313Z,79.69
2017-07-12T07:09:44.049Z,78.55
2017-07-12T07:12:10.760Z,80.43
2017-07-12T07:14:42.410Z,78.10
2017-07-12T07:17:14.058Z,79.38
2017-07-12T07:19:40.845Z,77.63
2017-07-12T07:22:07.290Z,79.22
2017-07-12T07:24:39.375Z,80.06
2017-07-12T07:27:07.900Z,77.86
2017-07-12T07:29:34.859Z,79.39
2017-07-12T07:32:01.302Z,80.60
2017-07-12T07:34:30.733Z,80.94
2017-07-12T07:36:57.643Z,80.32
2017-07-12T07:39:24.342Z,82.44
2017-07-12T07:41:55.948Z,79.76
2017-07-12T07:44:22.705Z,79.28
2017-07-12T07:46:49.196Z,78.59
2017-07-12T07:49:18.748Z,79.07
2017-07-12T07:51:46.060Z,79.35
2017-07-12T07:54:12.604Z,79.65
2017-07-12T07:56:38.962Z,79.40
2017-07-12T07:59:05.428Z,79.56
2017-07-12T08:01:31.908Z,80.40
2017-07-12T08:03:59.388Z,80.52
2017-07-12T08:06:26.115Z,81.43
2017-07-12T08:08:53.336Z,80.62
2017-07-12T08:11:20.014Z,81.52
2017-07-12T08:13:51.606Z,80.75
2017-07-12T08:16:18.044Z,84.13
2017-07-12T08:18:49.846Z,79.89
2017-07-12T08:21:16.496Z,81.24
2017-07-12T08:23:43.053Z,82.80
2017-07-12T08:26:09.500Z,80.80
2017-07-12T08:28:36.747Z,81.13
2017-07-12T08:31:08.290Z,79.32
2017-07-12T08:33:34.925Z,82.69
2017-07-12T08:36:01.397Z,79.47
2017-07-12T08:38:33.275Z,80.27
2017-07-12T08:40:59.889Z,79.68
2017-07-12T08:43:26.239Z,79.30
2017-07-12T08:45:57.843Z,80.29
2017-07-12T08:48:24.370Z,80.17
2017-07-12T08:50:50.811Z,79.57
2017-07-12T08:53:17.516Z,82.21
2017-07-12T08:55:44.954Z,80.08
2017-07-12T08:58:17.019Z,79.71
2017-07-12T09:00:44.278Z,83.85
2017-07-12T09:03:11.214Z,79.63
2017-07-12T09:05:37.882Z,79.15
2017-07-12T09:08:04.342Z,79.82
2017-07-12T09:10:30.761Z,79.53
2017-07-12T09:13:02.695Z,79.96
2017-07-12T09:15:34.390Z,83.32
2017-07-12T09:18:03.722Z,82.96
2017-07-12T09:20:30.199Z,82.84
2017-07-12T09:22:56.869Z,82.25
2017-07-12T09:35:09.544Z,80.65
2017-07-12T09:37:41.303Z,81.36
2017-07-12T09:40:07.831Z,83.13
2017-07-12T09:42:34.510Z,82.07
2017-07-12T09:45:01.039Z,82.40
2017-07-12T09:47:33.003Z,83.91
2017-07-12T09:49:59.839Z,83.56
2017-07-12T09:52:27.188Z,84.27
2017-07-12T09:54:54.049Z,82.55
2017-07-12T09:57:20.516Z,86.24
2017-07-12T09:59:50.257Z,82.23
2017-07-12T10:02:16.755Z,83.23
2017-07-12T10:04:48.336Z,82.53
2017-07-12T10:07:19.981Z,83.22
2017-07-12T10:09:46.332Z,82.75
2017-07-12T10:12:12.683Z,81.99
2017-07-12T10:14:39.003Z,82.34
2017-07-12T10:17:05.349Z,83.20
2017-07-12T10:19:31.683Z,83.87
2017-07-12T10:21:58.010Z,83.94
2017-07-12T10:24:24.376Z,82.97
2017-07-12T10:26:50.691Z,82.32
2017-07-12T10:29:17.038Z,83.47
2017-07-12T10:31:43.374Z,82.05
2017-07-12T10:34:09.731Z,83.49
2017-07-12T10:36:36.065Z,85.54
2017-07-12T10:39:02.509Z,82.90
2017-07-12T10:41:28.870Z,84.98
2017-07-12T10:43:55.241Z,84.31
2017-07-12T10:46:21.597Z,86.11
2017-07-12T10:48:47.929Z,83.89
2017-07-12T10:51:14.294Z,86.65
2017-07-12T10:53:40.665Z,85.48
2017-07-12T10:56:07.022Z,85.70
2017-07-12T10:58:33.400Z,83.33
2017-07-12T11:00:59.734Z,83.20
2017-07-12T11:03:26.088Z,83.93
2017-07-12T11:05:52.427Z,84.42
2017-07-12T11:08:18.747Z,84.87
2017-07-12T11:10:45.104Z,87.82
2017-07-12T11:13:11.480Z,85.62
2017-07-12T11:15:37.834Z,85.88
2017-07-12T11:18:04.187Z,85.19
2017-07-12T11:20:30.513Z,83.90
2017-07-12T11:22:56.894Z,85.86
2017-07-12T11:25:23.229Z,83.38
2017-07-12T11:27:49.575Z,85.06
2017-07-12T11:30:15.937Z,83.48
2017-07-12T11:32:42.293Z,83.48
2017-07-12T11:35:08.601Z,85.93
2017-07-12T11:37:35.426Z,84.79
2017-07-12T11:40:01.829Z,85.60
2017-07-12T11:42:28.194Z,84.62
2017-07-12T11:44:54.527Z,85.77
2017-07-12T11:47:20.889Z,86.01
2017-07-12T11:49:47.214Z,84.69
2017-07-12T11:52:13.609Z,86.97
2017-07-12T11:54:40.872Z,84.36
2017-07-12T11:57:07.295Z,84.79
2017-07-12T11:59:33.653Z,84.56
2017-07-12T12:02:00.043Z,84.55
2017-07-12T12:04:26.376Z,83.51
2017-07-12T12:06:52.735Z,84.69
2017-07-12T12:09:19.079Z,85.22
2017-07-12T12:11:45.397Z,84.78
2017-07-12T12:14:11.739Z,84.03
2017-07-12T12:16:38.068Z,83.32
2017-07-12T12:19:04.404Z,83.85
2017-07-12T12:21:30.747Z,84.89
2017-07-12T12:23:57.094Z,86.03
2017-07-12T12:26:23.422Z,87.11
2017-07-12T12:28:49.739Z,86.09
2017-07-12T12:31:16.102Z,86.55
2017-07-12T12:33:42.433Z,87.15
2017-07-12T12:36:08.786Z,88.26
2017-07-12T12:38:35.140Z,87.16
2017-07-12T12:41:01.481Z,86.47
2017-07-12T12:43:27.784Z,86.91
2017-07-12T12:45:54.129Z,85.79
2017-07-12T12:48:20.482Z,86.93
2017-07-12T12:50:46.874Z,89.01
2017-07-12T12:53:13.243Z,87.15
2017-07-12T12:55:39.582Z,87.51
2017-07-12T12:58:05.975Z,85.91
2017-07-12T13:00:32.340Z,86.09
2017-07-12T13:02:58.675Z,84.96
2017-07-12T13:05:31.014Z,85.20
2017-07-12T13:07:57.379Z,85.85
2017-07-12T13:10:23.757Z,86.20
2017-07-12T13:12:50.111Z,85.82
2017-07-12T13:15:16.458Z,84.61
2017-07-12T13:17:42.837Z,85.38
2017-07-12T13:20:09.184Z,84.39
2017-07-12T13:22:35.532Z,84.09
2017-07-12T13:25:01.925Z,85.37
2017-07-12T13:27:28.232Z,87.24
2017-07-12T13:29:54.581Z,86.07
2017-07-12T13:32:20.924Z,83.57
2017-07-12T13:34:47.290Z,86.33
2017-07-12T13:37:13.641Z,83.69
2017-07-12T13:39:39.986Z,85.40
2017-07-12T13:42:06.311Z,85.47
2017-07-12T13:44:32.641Z,85.58
2017-07-12T13:46:58.965Z,84.32
2017-07-12T13:49:25.325Z,85.48
2017-07-12T13:51:51.675Z,83.65
2017-07-12T13:54:18.054Z,85.23
2017-07-12T13:56:44.389Z,85.44
2017-07-12T13:59:10.725Z,84.12
2017-07-12T14:01:37.037Z,84.68
2017-07-12T14:04:03.406Z,83.36
2017-07-12T14:06:29.743Z,84.12
2017-07-12T14:08:56.080Z,83.24
2017-07-12T14:11:22.433Z,85.28
2017-07-12T14:13:48.774Z,82.89
2017-07-12T14:16:15.129Z,84.50
2017-07-12T14:18:41.483Z,84.65
2017-07-12T14:21:07.846Z,84.21
2017-07-12T14:23:34.186Z,84.42
2017-07-12T14:26:00.514Z,84.58
2017-07-12T14:28:26.886Z,84.47
2017-07-12T14:30:53.291Z,84.50
2017-07-12T14:33:19.928Z,85.01
2017-07-12T14:35:46.452Z,83.74
2017-07-12T14:38:12.823Z,84.16
2017-07-12T14:40:39.166Z,83.74
2017-07-12T14:43:05.496Z,83.81
2017-07-12T14:45:31.862Z,80.69
2017-07-12T14:47:58.214Z,81.00
2017-07-12T14:50:24.563Z,81.12
2017-07-12T14:52:50.952Z,80.55
2017-07-12T14:55:17.307Z,80.11
2017-07-12T14:57:43.633Z,82.82
2017-07-12T15:00:10.005Z,81.51
2017-07-12T15:02:36.359Z,83.12
2017-07-12T15:05:11.251Z,83.72
2017-07-12T15:07:37.581Z,83.94
2017-07-12T15:10:03.917Z,83.54
2017-07-12T15:12:30.261Z,84.84
2017-07-12T15:14:56.627Z,83.93
2017-07-12T15:17:22.944Z,84.29
2017-07-12T15:19:49.319Z,84.13
2017-07-12T15:22:15.680Z,84.25
2017-07-12T15:24:42.005Z,84.11
2017-07-12T15:27:08.366Z,83.12
2017-07-12T15:29:34.868Z,83.37
2017-07-12T15:32:11.717Z,85.92
2017-07-12T15:34:42.864Z,84.73
2017-07-12T15:37:11.355Z,83.65
2017-07-12T15:39:39.288Z,83.76
2017-07-12T15:42:09.611Z,81.81
2017-07-12T15:44:36.993Z,81.55
2017-07-12T15:47:06.090Z,83.41
2017-07-12T15:49:35.125Z,80.84
2017-07-12T15:52:02.285Z,80.94
2017-07-12T15:54:29.393Z,81.12
2017-07-12T15:56:57.121Z,80.44
2017-07-12T15:59:25.543Z,79.97
2017-07-12T16:01:51.905Z,80.25
2017-07-12T16:04:18.271Z,80.77
2017-07-12T16:06:44.600Z,80.62
2017-07-12T16:09:10.973Z,81.00
2017-07-12T16:11:37.322Z,81.97
2017-07-12T16:14:03.650Z,81.62
2017-07-12T16:16:30.489Z,81.48
2017-07-12T16:18:57.539Z,78.86
2017-07-12T16:21:24.317Z,80.72
2017-07-12T16:23:50.670Z,81.30
2017-07-12T16:26:17.718Z,81.17
2017-07-12T16:28:44.438Z,80.43
2017-07-12T16:31:11.483Z,80.95
2017-07-12T16:33:38.563Z,80.72
2017-07-12T16:36:05.297Z,79.91
2017-07-12T16:38:31.853Z,78.33
2017-07-12T16:40:58.211Z,79.51
2017-07-12T16:43:24.722Z,79.19
2017-07-12T16:45:51.050Z,77.75
2017-07-12T16:48:17.429Z,78.27
2017-07-12T16:50:43.773Z,76.98
2017-07-12T16:53:10.127Z,77.39
2017-07-12T16:55:36.461Z,78.58
2017-07-12T16:58:02.824Z,77.78
2017-07-12T17:00:29.177Z,76.47
2017-07-12T17:02:55.527Z,77.49
2017-07-12T17:05:21.849Z,78.32
2017-07-12T17:07:48.810Z,75.88
2017-07-12T17:10:15.459Z,74.62
2017-07-12T17:12:42.354Z,72.19
2017-07-12T17:15:09.251Z,72.87
2017-07-12T17:17:36.026Z,72.82
2017-07-12T17:20:03.199Z,71.92
2017-07-12T17:22:30.212Z,72.34
2017-07-12T17:24:57.073Z,71.18
2017-07-12T17:27:24.150Z,71.37
2017-07-12T17:29:50.938Z,70.07
2017-07-12T17:32:17.889Z,70.02
2017-07-12T17:34:45.002Z,70.13
2017-07-12T17:37:12.034Z,71.42
2017-07-12T17:39:38.607Z,70.83
2017-07-12T17:42:05.018Z,70.71
2017-07-12T17:44:31.698Z,70.05
2017-07-12T17:46:58.081Z,70.42
2017-07-12T17:49:24.535Z,70.73
2017-07-12T17:51:50.967Z,69.66
2017-07-12T17:54:17.352Z,71.23
2017-07-12T17:56:43.850Z,70.54
2017-07-12T17:59:10.213Z,72.08
2017-07-12T18:01:36.598Z,71.65
2017-07-12T18:04:02.954Z,71.00
2017-07-12T18:06:29.295Z,69.62
2017-07-12T18:21:54.711Z,68.21
2017-07-12T18:24:21.057Z,69.78
2017-07-12T18:26:47.510Z,68.62
2017-07-12T18:29:13.915Z,67.36
2017-07-12T18:31:40.400Z,68.07
2017-07-12T18:34:06.810Z,66.37
2017-07-12T18:36:33.157Z,67.72
2017-07-12T18:38:59.510Z,67.02
2017-07-12T18:41:26.908Z,65.24
2017-07-12T18:43:53.295Z,64.48
2017-07-12T18:46:19.690Z,65.58
2017-07-12T18:48:46.067Z,66.20
2017-07-12T18:51:12.491Z,67.17
2017-07-12T18:53:38.832Z,66.73
2017-07-12T18:56:05.197Z,66.41
2017-07-12T18:58:31.565Z,68.44
2017-07-12T19:00:57.955Z,66.67
2017-07-12T19:03:24.358Z,66.63
2017-07-12T19:05:50.748Z,67.27
2017-07-12T19:08:17.192Z,67.55
2017-07-12T19:10:43.594Z,67.01
2017-07-12T19:13:09.962Z,66.22
2017-07-12T19:15:41.600Z,66.02
2017-07-12T19:18:08.188Z,66.01
2017-07-12T19:20:34.558Z,66.88
2017-07-12T19:23:00.952Z,68.73
2017-07-12T19:25:27.347Z,69.79
2017-07-12T19:27:53.738Z,71.13
2017-07-12T19:30:20.352Z,68.44
2017-07-12T19:32:46.695Z,67.96
2017-07-12T19:35:14.529Z,73.11
2017-07-12T19:37:40.966Z,71.70
2017-07-12T19:40:07.533Z,71.36
2017-07-12T19:42:34.816Z,75.00
2017-07-12T19:45:01.256Z,70.47
2017-07-12T19:47:27.680Z,72.19
2017-07-12T19:49:54.081Z,68.96
2017-07-12T19:52:20.447Z,74.09
2017-07-12T19:54:46.836Z,73.87
2017-07-12T19:57:13.720Z,73.83
2017-07-12T19:59:40.873Z,71.17
2017-07-12T20:02:08.892Z,71.84
2017-07-12T20:04:35.302Z,72.12
2017-07-12T20:07:01.672Z,71.65
2017-07-12T20:09:28.022Z,72.84
2017-07-12T20:11:54.391Z,73.10
2017-07-12T20:14:20.777Z,71.28
2017-07-12T20:16:47.153Z,70.75
2017-07-12T20:19:13.531Z,70.08
2017-07-12T20:21:39.887Z,73.06
2017-07-12T20:24:06.266Z,70.88
2017-07-12T20:26:32.651Z,70.69
2017-07-12T20:28:59.086Z,70.65
2017-07-12T20:31:26.946Z,72.75
2017-07-12T20:33:54.950Z,71.75
2017-07-12T20:36:21.426Z,71.96
2017-07-12T20:38:47.780Z,72.66
2017-07-12T20:41:14.489Z,72.20
2017-07-12T20:43:40.852Z,71.01
2017-07-12T20:46:07.233Z,70.10
2017-07-12T20:48:33.616Z,70.40
2017-07-12T20:51:00.264Z,69.92
2017-07-12T20:53:26.723Z,71.86
2017-07-12T20:55:53.141Z,69.92
2017-07-12T20:58:19.596Z,71.21
2017-07-12T21:00:46.016Z,69.89
2017-07-12T21:03:12.386Z,71.03
2017-07-12T21:05:38.755Z,72.48
2017-07-12T21:08:05.103Z,71.95
2017-07-12T21:10:31.438Z,70.97
2017-07-12T21:12:58.131Z,72.07
2017-07-12T21:15:24.521Z,72.67
2017-07-12T21:17:50.865Z,73.27
2017-07-12T21:20:17.262Z,72.88
2017-07-12T21:22:43.658Z,73.33
2017-07-12T21:25:10.072Z,71.92
2017-07-12T21:27:36.475Z,72.79
2017-07-12T21:30:02.893Z,72.91
2017-07-12T21:32:29.233Z,77.05
2017-07-12T21:34:55.633Z,76.90
2017-07-12T21:37:21.984Z,78.74
2017-07-12T21:39:48.360Z,76.09
2017-07-12T21:42:14.766Z,78.36
2017-07-12T21:44:41.213Z,73.14
2017-07-12T21:47:07.536Z,74.89
2017-07-12T21:49:33.896Z,79.07
2017-07-12T21:52:00.245Z,78.61
2017-07-12T21:54:44.941Z,77.55
2017-07-12T21:57:29.581Z,79.18
2017-07-12T22:00:14.113Z,74.95
2017-07-12T22:02:58.755Z,80.39
2017-07-12T22:05:43.227Z,77.47
2017-07-12T22:08:27.763Z,79.41
2017-07-12T22:11:12.487Z,82.04
2017-07-12T22:13:57.199Z,79.21
2017-07-12T22:16:41.816Z,78.70
2017-07-12T22:19:26.369Z,80.90
2017-07-12T22:22:10.906Z,76.89
2017-07-12T22:24:55.572Z,77.54
2017-07-12T22:27:40.249Z,79.46
2017-07-12T22:30:24.867Z,81.98
2017-07-12T22:33:09.434Z,77.72
2017-07-12T22:35:54.956Z,80.08
2017-07-12T22:38:31.309Z,81.33
2017-07-12T22:41:04.051Z,83.02
2017-07-12T22:43:30.311Z,83.32
2017-07-12T22:45:59.870Z,80.83
2017-07-12T22:48:29.348Z,81.01
2017-07-12T22:50:55.865Z,81.62
2017-07-12T22:53:22.228Z,77.41
2017-07-12T22:55:48.572Z,75.33
2017-07-12T22:58:14.922Z,76.55
2017-07-12T23:00:41.523Z,81.26
2017-07-12T23:03:07.968Z,81.88
2017-07-12T23:05:34.324Z,82.49
2017-07-12T23:08:00.695Z,80.14
2017-07-12T23:10:27.086Z,78.56
2017-07-12T23:12:53.466Z,80.90
2017-07-12T23:15:19.826Z,78.82
2017-07-12T23:17:46.198Z,79.37
2017-07-12T23:20:12.638Z,78.71
2017-07-12T23:22:39.016Z,81.24
2017-07-12T23:25:05.349Z,80.94
2017-07-12T23:27:31.713Z,80.68
2017-07-12T23:29:58.147Z,79.26
2017-07-12T23:32:24.520Z,81.41
2017-07-12T23:34:50.929Z,79.82
2017-07-12T23:37:17.331Z,76.54
2017-07-12T23:39:43.767Z,79.98
2017-07-12T23:42:10.154Z,77.21
2017-07-12T23:44:36.648Z,80.64
2017-07-12T23:47:03.414Z,80.35
2017-07-12T23:49:29.888Z,81.96
2017-07-12T23:51:56.290Z,81.53
2017-07-12T23:54:22.755Z,81.74
2017-07-12T23:56:49.165Z,82.79
2017-07-12T23:59:15.552Z,82.38
